Terminal Aerodrome Forecast
Issued by NWS

Home | Current Version | Previous Version | Text Only | Print | Product List | Glossary On
Versions: 1 2 3 4 5 6 7 8 9 10 11 12 13
000
FTPQ31 PGUM 280520
TAFGUM
TAF

TAF
PTKK 280520Z 2806/2906 04008KT P6SM VCSH FEW015 SCT050
     FM281000 07010KT P6SM VCSH SCT012 SCT030 BKN120
      TEMPO 2811/2815 5SM SHRA SCT012 OVC030=

USA.gov is the U.S. government's official web portal to all federal, state and local government web resources and services.